sensor_id;sensor_type;location;lat;lon;timestamp;temperature;humidity
13697;DHT22;6920;50.080;8.226;2023-07-20T00:03:14;19.60;99.90
13697;DHT22;6920;50.080;8.226;2023-07-20T00:05:48;19.60;99.90
13697;DHT22;6920;50.080;8.226;2023-07-20T00:08:21;19.50;99.90
13697;DHT22;6920;50.080;8.226;2023-07-20T00:10:48;19.50;99.90
13697;DHT22;6920;50.080;8.226;2023-07-20T00:13:16;19.40;99.90
13697;DHT22;6920;50.080;8.226;2023-07-20T00:15:47;19.30;99.90
13697;DHT22;6920;50.080;8.226;2023-07-20T00:18:14;19.30;99.90
13697;DHT22;6920;50.080;8.226;2023-07-20T00:20:42;19.20;99.90
13697;DHT22;6920;50.080;8.226;2023-07-20T00:23:11;19.20;99.90
13697;DHT22;6920;50.080;8.226;2023-07-20T00:25:41;19.10;99.90
13697;DHT22;6920;50.080;8.226;2023-07-20T00:28:09;19.10;99.90
13697;DHT22;6920;50.080;8.226;2023-07-20T00:30:39;19.10;99.90
13697;DHT22;6920;50.080;8.226;2023-07-20T00:33:12;19.10;99.90
13697;DHT22;6920;50.080;8.226;2023-07-20T00:38:13;19.10;99.90
13697;DHT22;6920;50.080;8.226;2023-07-20T00:40:43;18.90;99.90
13697;DHT22;6920;50.080;8.226;2023-07-20T00:43:12;18.90;99.90
13697;DHT22;6920;50.080;8.226;2023-07-20T00:45:40;18.90;99.90
13697;DHT22;6920;50.080;8.226;2023-07-20T00:48:09;18.90;99.90
13697;DHT22;6920;50.080;8.226;2023-07-20T00:53:07;18.70;99.90
13697;DHT22;6920;50.080;8.226;2023-07-20T00:55:35;18.60;99.90
13697;DHT22;6920;50.080;8.226;2023-07-20T00:58:05;18.60;99.90
13697;DHT22;6920;50.080;8.226;2023-07-20T01:00:32;18.60;99.90
13697;DHT22;6920;50.080;8.226;2023-07-20T01:03:01;18.60;99.90
13697;DHT22;6920;50.080;8.226;2023-07-20T01:05:34;18.60;99.90
13697;DHT22;6920;50.080;8.226;2023-07-20T01:08:07;18.70;99.90
13697;DHT22;6920;50.080;8.226;2023-07-20T01:10:40;18.60;99.90
13697;DHT22;6920;50.080;8.226;2023-07-20T01:13:25;18.60;99.90
13697;DHT22;6920;50.080;8.226;2023-07-20T01:15:57;18.60;99.90
13697;DHT22;6920;50.080;8.226;2023-07-20T01:18:29;18.50;99.90
13697;DHT22;6920;50.080;8.226;2023-07-20T01:20:59;18.50;99.90
13697;DHT22;6920;50.080;8.226;2023-07-20T01:23:53;18.50;99.90
13697;DHT22;6920;50.080;8.226;2023-07-20T01:26:59;18.50;99.90
13697;DHT22;6920;50.080;8.226;2023-07-20T01:29:49;18.50;99.90
13697;DHT22;6920;50.080;8.226;2023-07-20T01:32:29;18.40;99.90
13697;DHT22;6920;50.080;8.226;2023-07-20T01:34:59;18.40;99.90
13697;DHT22;6920;50.080;8.226;2023-07-20T01:37:33;18.30;99.90
13697;DHT22;6920;50.080;8.226;2023-07-20T01:40:09;18.40;99.90
13697;DHT22;6920;50.080;8.226;2023-07-20T01:42:37;18.40;99.90
13697;DHT22;6920;50.080;8.226;2023-07-20T01:45:08;18.40;99.90
13697;DHT22;6920;50.080;8.226;2023-07-20T01:47:40;18.40;99.90
13697;DHT22;6920;50.080;8.226;2023-07-20T01:50:08;18.40;99.90
13697;DHT22;6920;50.080;8.226;2023-07-20T01:52:37;18.40;99.90
13697;DHT22;6920;50.080;8.226;2023-07-20T01:55:10;18.40;99.90
13697;DHT22;6920;50.080;8.226;2023-07-20T01:57:38;18.40;99.90
13697;DHT22;6920;50.080;8.226;2023-07-20T02:00:07;18.40;99.90
13697;DHT22;6920;50.080;8.226;2023-07-20T02:02:35;18.40;99.90
13697;DHT22;6920;50.080;8.226;2023-07-20T02:05:06;18.40;99.90
13697;DHT22;6920;50.080;8.226;2023-07-20T02:07:36;18.40;99.90
13697;DHT22;6920;50.080;8.226;2023-07-20T02:10:05;18.40;99.90
13697;DHT22;6920;50.080;8.226;2023-07-20T02:12:33;18.40;99.90
13697;DHT22;6920;50.080;8.226;2023-07-20T02:15:02;18.40;99.90
13697;DHT22;6920;50.080;8.226;2023-07-20T02:17:29;18.30;99.90
13697;DHT22;6920;50.080;8.226;2023-07-20T02:20:11;18.40;99.90
13697;DHT22;6920;50.080;8.226;2023-07-20T02:22:38;18.40;99.90
13697;DHT22;6920;50.080;8.226;2023-07-20T02:25:07;18.30;99.90
13697;DHT22;6920;50.080;8.226;2023-07-20T02:27:34;18.30;99.90
13697;DHT22;6920;50.080;8.226;2023-07-20T02:30:06;18.30;99.90
13697;DHT22;6920;50.080;8.226;2023-07-20T02:32:36;18.30;99.90
13697;DHT22;6920;50.080;8.226;2023-07-20T02:35:08;18.30;99.90
13697;DHT22;6920;50.080;8.226;2023-07-20T02:37:36;18.20;99.90
13697;DHT22;6920;50.080;8.226;2023-07-20T02:40:20;18.20;99.90
13697;DHT22;6920;50.080;8.226;2023-07-20T02:42:47;18.10;99.90
13697;DHT22;6920;50.080;8.226;2023-07-20T02:45:17;18.20;99.90
13697;DHT22;6920;50.080;8.226;2023-07-20T02:47:44;18.20;99.90
13697;DHT22;6920;50.080;8.226;2023-07-20T02:50:15;18.10;99.90
13697;DHT22;6920;50.080;8.226;2023-07-20T02:52:43;18.10;99.90
13697;DHT22;6920;50.080;8.226;2023-07-20T02:55:11;18.00;99.90
13697;DHT22;6920;50.080;8.226;2023-07-20T02:57:42;17.90;99.90
13697;DHT22;6920;50.080;8.226;2023-07-20T03:00:13;17.80;99.90
13697;DHT22;6920;50.080;8.226;2023-07-20T03:02:44;17.80;99.90
13697;DHT22;6920;50.080;8.226;2023-07-20T03:05:14;17.80;99.90
13697;DHT22;6920;50.080;8.226;2023-07-20T03:07:45;17.80;99.90
13697;DHT22;6920;50.080;8.226;2023-07-20T03:10:13;17.70;99.90
13697;DHT22;6920;50.080;8.226;2023-07-20T03:12:41;17.70;99.90
13697;DHT22;6920;50.080;8.226;2023-07-20T03:15:11;17.60;99.90
13697;DHT22;6920;50.080;8.226;2023-07-20T03:17:43;17.40;99.90
13697;DHT22;6920;50.080;8.226;2023-07-20T03:20:12;17.50;99.90
13697;DHT22;6920;50.080;8.226;2023-07-20T03:22:42;17.30;99.90
13697;DHT22;6920;50.080;8.226;2023-07-20T03:25:12;17.30;99.90
13697;DHT22;6920;50.080;8.226;2023-07-20T03:27:46;17.30;99.90
13697;DHT22;6920;50.080;8.226;2023-07-20T03:32:52;17.40;99.90
13697;DHT22;6920;50.080;8.226;2023-07-20T03:35:29;17.20;99.90
13697;DHT22;6920;50.080;8.226;2023-07-20T03:38:01;17.30;99.90
13697;DHT22;6920;50.080;8.226;2023-07-20T03:40:28;17.40;99.90
13697;DHT22;6920;50.080;8.226;2023-07-20T03:42:56;17.30;99.90
13697;DHT22;6920;50.080;8.226;2023-07-20T03:45:24;17.40;99.90
13697;DHT22;6920;50.080;8.226;2023-07-20T03:47:52;17.30;99.90
13697;DHT22;6920;50.080;8.226;2023-07-20T03:50:22;17.20;99.90
13697;DHT22;6920;50.080;8.226;2023-07-20T04:04:29;16.70;99.90
13697;DHT22;6920;50.080;8.226;2023-07-20T04:06:57;16.70;99.90
13697;DHT22;6920;50.080;8.226;2023-07-20T04:11:51;16.90;99.90
13697;DHT22;6920;50.080;8.226;2023-07-20T04:16:47;17.10;99.90
13697;DHT22;6920;50.080;8.226;2023-07-20T04:19:16;17.00;99.90
13697;DHT22;6920;50.080;8.226;2023-07-20T04:21:47;17.00;99.90
13697;DHT22;6920;50.080;8.226;2023-07-20T04:24:17;17.10;99.90
13697;DHT22;6920;50.080;8.226;2023-07-20T04:26:47;17.10;99.90
13697;DHT22;6920;50.080;8.226;2023-07-20T04:29:15;17.10;99.90
13697;DHT22;6920;50.080;8.226;2023-07-20T04:31:44;17.00;99.90
13697;DHT22;6920;50.080;8.226;2023-07-20T04:34:12;17.10;99.90
13697;DHT22;6920;50.080;8.226;2023-07-20T04:39:21;17.10;99.90
13697;DHT22;6920;50.080;8.226;2023-07-20T04:44:20;17.30;99.90
13697;DHT22;6920;50.080;8.226;2023-07-20T04:46:51;17.40;99.90
13697;DHT22;6920;50.080;8.226;2023-07-20T04:49:19;17.30;99.90
13697;DHT22;6920;50.080;8.226;2023-07-20T04:51:48;17.20;99.90
13697;DHT22;6920;50.080;8.226;2023-07-20T04:54:24;17.30;99.90
13697;DHT22;6920;50.080;8.226;2023-07-20T04:56:54;17.20;99.90
13697;DHT22;6920;50.080;8.226;2023-07-20T04:59:24;17.30;99.90
13697;DHT22;6920;50.080;8.226;2023-07-20T05:01:51;17.10;99.90
13697;DHT22;6920;50.080;8.226;2023-07-20T05:04:21;17.30;99.90
13697;DHT22;6920;50.080;8.226;2023-07-20T05:06:52;17.30;99.90
13697;DHT22;6920;50.080;8.226;2023-07-20T05:09:30;17.20;99.90
13697;DHT22;6920;50.080;8.226;2023-07-20T05:11:57;17.20;99.90
13697;DHT22;6920;50.080;8.226;2023-07-20T05:14:26;17.20;99.90
13697;DHT22;6920;50.080;8.226;2023-07-20T05:16:59;17.20;99.90
13697;DHT22;6920;50.080;8.226;2023-07-20T05:19:31;17.20;99.90
13697;DHT22;6920;50.080;8.226;2023-07-20T05:21:59;17.10;99.90
13697;DHT22;6920;50.080;8.226;2023-07-20T05:24:37;17.20;99.90
13697;DHT22;6920;50.080;8.226;2023-07-20T05:27:07;17.50;99.90
13697;DHT22;6920;50.080;8.226;2023-07-20T05:29:36;17.30;99.90
13697;DHT22;6920;50.080;8.226;2023-07-20T05:32:07;17.40;99.90
13697;DHT22;6920;50.080;8.226;2023-07-20T05:34:35;17.40;99.90
13697;DHT22;6920;50.080;8.226;2023-07-20T05:37:08;17.40;99.90
13697;DHT22;6920;50.080;8.226;2023-07-20T05:39:38;17.60;99.90
13697;DHT22;6920;50.080;8.226;2023-07-20T05:42:06;17.70;99.90
13697;DHT22;6920;50.080;8.226;2023-07-20T05:44:33;17.90;99.90
13697;DHT22;6920;50.080;8.226;2023-07-20T05:47:00;17.80;99.90
13697;DHT22;6920;50.080;8.226;2023-07-20T05:49:29;17.80;99.90
13697;DHT22;6920;50.080;8.226;2023-07-20T05:51:57;17.80;99.90
13697;DHT22;6920;50.080;8.226;2023-07-20T05:54:26;17.90;99.90
13697;DHT22;6920;50.080;8.226;2023-07-20T05:56:59;18.10;99.90
13697;DHT22;6920;50.080;8.226;2023-07-20T05:59:27;18.30;99.90
13697;DHT22;6920;50.080;8.226;2023-07-20T06:01:59;18.50;99.90
13697;DHT22;6920;50.080;8.226;2023-07-20T06:04:27;18.50;99.90
13697;DHT22;6920;50.080;8.226;2023-07-20T06:06:54;18.50;99.90
13697;DHT22;6920;50.080;8.226;2023-07-20T06:09:23;18.60;99.90
13697;DHT22;6920;50.080;8.226;2023-07-20T06:11:54;18.60;99.90
13697;DHT22;6920;50.080;8.226;2023-07-20T06:14:29;18.70;99.90
13697;DHT22;6920;50.080;8.226;2023-07-20T06:16:57;18.80;99.90
13697;DHT22;6920;50.080;8.226;2023-07-20T06:19:28;18.90;99.90
13697;DHT22;6920;50.080;8.226;2023-07-20T06:24:22;18.90;99.90
13697;DHT22;6920;50.080;8.226;2023-07-20T06:26:52;19.00;99.90
13697;DHT22;6920;50.080;8.226;2023-07-20T06:29:20;19.00;99.90
13697;DHT22;6920;50.080;8.226;2023-07-20T06:31:49;18.90;99.90
13697;DHT22;6920;50.080;8.226;2023-07-20T06:34:17;19.00;99.90
13697;DHT22;6920;50.080;8.226;2023-07-20T06:36:49;19.00;99.90
13697;DHT22;6920;50.080;8.226;2023-07-20T06:39:33;19.00;99.90
13697;DHT22;6920;50.080;8.226;2023-07-20T06:44:32;19.30;99.90
13697;DHT22;6920;50.080;8.226;2023-07-20T06:47:11;19.30;99.90
13697;DHT22;6920;50.080;8.226;2023-07-20T06:49:42;19.40;99.90
13697;DHT22;6920;50.080;8.226;2023-07-20T06:52:12;19.30;99.90
13697;DHT22;6920;50.080;8.226;2023-07-20T06:54:40;19.40;99.90
13697;DHT22;6920;50.080;8.226;2023-07-20T06:57:12;19.70;99.90
13697;DHT22;6920;50.080;8.226;2023-07-20T06:59:40;19.90;99.90
13697;DHT22;6920;50.080;8.226;2023-07-20T07:04:55;20.50;99.90
13697;DHT22;6920;50.080;8.226;2023-07-20T07:07:24;20.60;99.90
13697;DHT22;6920;50.080;8.226;2023-07-20T07:09:51;20.50;99.90
13697;DHT22;6920;50.080;8.226;2023-07-20T07:12:23;20.20;99.90
13697;DHT22;6920;50.080;8.226;2023-07-20T07:14:52;20.10;99.90
13697;DHT22;6920;50.080;8.226;2023-07-20T07:17:19;20.10;99.90
13697;DHT22;6920;50.080;8.226;2023-07-20T07:19:48;19.80;99.90
13697;DHT22;6920;50.080;8.226;2023-07-20T07:22:28;19.80;99.90
13697;DHT22;6920;50.080;8.226;2023-07-20T07:24:58;19.80;99.90
13697;DHT22;6920;50.080;8.226;2023-07-20T07:27:27;19.50;99.90
13697;DHT22;6920;50.080;8.226;2023-07-20T07:29:57;19.80;99.90
13697;DHT22;6920;50.080;8.226;2023-07-20T07:32:29;20.20;99.90
13697;DHT22;6920;50.080;8.226;2023-07-20T07:34:58;20.60;99.90
13697;DHT22;6920;50.080;8.226;2023-07-20T07:37:32;20.60;99.90
13697;DHT22;6920;50.080;8.226;2023-07-20T07:40:01;20.50;99.90
13697;DHT22;6920;50.080;8.226;2023-07-20T07:42:31;20.40;99.90
13697;DHT22;6920;50.080;8.226;2023-07-20T07:45:01;20.50;99.90
13697;DHT22;6920;50.080;8.226;2023-07-20T07:50:43;20.90;99.90
13697;DHT22;6920;50.080;8.226;2023-07-20T07:53:24;21.00;99.90
13697;DHT22;6920;50.080;8.226;2023-07-20T07:56:08;20.90;99.90
13697;DHT22;6920;50.080;8.226;2023-07-20T07:58:37;20.80;99.90
13697;DHT22;6920;50.080;8.226;2023-07-20T08:01:17;20.60;99.90
13697;DHT22;6920;50.080;8.226;2023-07-20T08:03:46;20.60;99.90
13697;DHT22;6920;50.080;8.226;2023-07-20T08:06:15;21.00;99.90
13697;DHT22;6920;50.080;8.226;2023-07-20T08:08:46;20.90;99.90
13697;DHT22;6920;50.080;8.226;2023-07-20T08:11:14;21.30;99.90
13697;DHT22;6920;50.080;8.226;2023-07-20T08:13:42;21.20;99.90
13697;DHT22;6920;50.080;8.226;2023-07-20T08:16:10;21.20;99.90
13697;DHT22;6920;50.080;8.226;2023-07-20T08:18:37;21.00;99.90
13697;DHT22;6920;50.080;8.226;2023-07-20T08:21:05;20.90;99.90
13697;DHT22;6920;50.080;8.226;2023-07-20T08:23:32;20.70;99.90
13697;DHT22;6920;50.080;8.226;2023-07-20T08:26:04;20.80;99.90
13697;DHT22;6920;50.080;8.226;2023-07-20T08:28:35;21.30;99.90
13697;DHT22;6920;50.080;8.226;2023-07-20T08:31:06;22.10;99.90
13697;DHT22;6920;50.080;8.226;2023-07-20T08:33:33;22.00;99.90
13697;DHT22;6920;50.080;8.226;2023-07-20T08:36:02;21.80;99.90
13697;DHT22;6920;50.080;8.226;2023-07-20T08:40:59;21.60;99.90
13697;DHT22;6920;50.080;8.226;2023-07-20T08:43:30;21.30;99.90
13697;DHT22;6920;50.080;8.226;2023-07-20T08:45:59;21.40;99.90
13697;DHT22;6920;50.080;8.226;2023-07-20T08:51:40;21.30;99.90
13697;DHT22;6920;50.080;8.226;2023-07-20T08:54:13;21.20;99.90
13697;DHT22;6920;50.080;8.226;2023-07-20T08:56:41;21.40;99.90
13697;DHT22;6920;50.080;8.226;2023-07-20T08:59:13;21.70;99.90
13697;DHT22;6920;50.080;8.226;2023-07-20T09:01:47;21.60;99.90
13697;DHT22;6920;50.080;8.226;2023-07-20T09:04:15;21.70;99.90
13697;DHT22;6920;50.080;8.226;2023-07-20T09:06:45;21.90;99.90
13697;DHT22;6920;50.080;8.226;2023-07-20T09:09:13;21.90;99.90
13697;DHT22;6920;50.080;8.226;2023-07-20T09:11:41;21.90;99.90
13697;DHT22;6920;50.080;8.226;2023-07-20T09:14:09;21.80;99.90
13697;DHT22;6920;50.080;8.226;2023-07-20T09:16:49;21.90;99.90
13697;DHT22;6920;50.080;8.226;2023-07-20T09:19:17;21.80;99.90
13697;DHT22;6920;50.080;8.226;2023-07-20T09:21:46;21.80;99.90
13697;DHT22;6920;50.080;8.226;2023-07-20T09:24:15;22.40;99.90
13697;DHT22;6920;50.080;8.226;2023-07-20T09:26:43;23.00;99.90
13697;DHT22;6920;50.080;8.226;2023-07-20T09:29:11;22.70;99.90
13697;DHT22;6920;50.080;8.226;2023-07-20T09:31:39;23.40;99.90
13697;DHT22;6920;50.080;8.226;2023-07-20T09:34:10;23.80;99.90
13697;DHT22;6920;50.080;8.226;2023-07-20T09:36:40;23.40;99.90
13697;DHT22;6920;50.080;8.226;2023-07-20T09:39:09;23.30;99.90
13697;DHT22;6920;50.080;8.226;2023-07-20T09:41:41;22.90;99.90
13697;DHT22;6920;50.080;8.226;2023-07-20T09:44:10;22.80;99.90
13697;DHT22;6920;50.080;8.226;2023-07-20T09:46:44;22.70;99.90
13697;DHT22;6920;50.080;8.226;2023-07-20T09:52:40;22.40;99.90
13697;DHT22;6920;50.080;8.226;2023-07-20T09:55:10;22.50;99.90
13697;DHT22;6920;50.080;8.226;2023-07-20T09:57:40;22.60;99.90
13697;DHT22;6920;50.080;8.226;2023-07-20T10:00:09;22.60;99.90
13697;DHT22;6920;50.080;8.226;2023-07-20T10:02:45;22.50;99.90
13697;DHT22;6920;50.080;8.226;2023-07-20T10:05:15;22.30;99.90
13697;DHT22;6920;50.080;8.226;2023-07-20T10:07:50;22.10;99.90
13697;DHT22;6920;50.080;8.226;2023-07-20T10:10:20;22.00;99.90
13697;DHT22;6920;50.080;8.226;2023-07-20T10:12:52;22.00;99.90
13697;DHT22;6920;50.080;8.226;2023-07-20T10:15:24;22.00;99.90
13697;DHT22;6920;50.080;8.226;2023-07-20T10:17:59;22.20;99.90
13697;DHT22;6920;50.080;8.226;2023-07-20T10:20:35;22.40;99.90
13697;DHT22;6920;50.080;8.226;2023-07-20T10:23:08;22.40;99.90
13697;DHT22;6920;50.080;8.226;2023-07-20T10:25:38;22.60;99.90
13697;DHT22;6920;50.080;8.226;2023-07-20T10:28:10;22.60;99.90
13697;DHT22;6920;50.080;8.226;2023-07-20T10:30:38;22.80;99.90
13697;DHT22;6920;50.080;8.226;2023-07-20T10:33:07;23.50;99.90
13697;DHT22;6920;50.080;8.226;2023-07-20T10:35:51;23.80;99.90
13697;DHT22;6920;50.080;8.226;2023-07-20T10:38:38;23.90;99.90
13697;DHT22;6920;50.080;8.226;2023-07-20T10:41:21;24.20;99.90
13697;DHT22;6920;50.080;8.226;2023-07-20T10:43:58;23.90;99.90
13697;DHT22;6920;50.080;8.226;2023-07-20T10:46:42;23.70;99.90
13697;DHT22;6920;50.080;8.226;2023-07-20T10:49:18;23.40;99.90
13697;DHT22;6920;50.080;8.226;2023-07-20T10:51:57;23.50;99.90
13697;DHT22;6920;50.080;8.226;2023-07-20T10:54:47;23.60;99.90
13697;DHT22;6920;50.080;8.226;2023-07-20T10:57:38;23.40;99.90
13697;DHT22;6920;50.080;8.226;2023-07-20T11:00:09;23.40;99.90
13697;DHT22;6920;50.080;8.226;2023-07-20T11:02:49;24.40;99.90
13697;DHT22;6920;50.080;8.226;2023-07-20T11:05:35;25.20;99.90
13697;DHT22;6920;50.080;8.226;2023-07-20T11:08:06;25.80;99.90
13697;DHT22;6920;50.080;8.226;2023-07-20T11:13:31;26.20;99.90
13697;DHT22;6920;50.080;8.226;2023-07-20T11:16:10;25.60;99.90
13697;DHT22;6920;50.080;8.226;2023-07-20T11:18:37;24.60;99.90
13697;DHT22;6920;50.080;8.226;2023-07-20T11:21:09;24.30;99.90
13697;DHT22;6920;50.080;8.226;2023-07-20T11:23:38;24.00;99.90
13697;DHT22;6920;50.080;8.226;2023-07-20T11:28:49;23.80;99.90
13697;DHT22;6920;50.080;8.226;2023-07-20T11:31:20;23.70;99.90
13697;DHT22;6920;50.080;8.226;2023-07-20T11:33:50;23.20;99.90
13697;DHT22;6920;50.080;8.226;2023-07-20T11:38:54;23.40;99.90
13697;DHT22;6920;50.080;8.226;2023-07-20T11:41:26;23.40;99.90
13697;DHT22;6920;50.080;8.226;2023-07-20T11:43:54;23.30;99.90
13697;DHT22;6920;50.080;8.226;2023-07-20T11:46:24;23.40;99.90
13697;DHT22;6920;50.080;8.226;2023-07-20T11:48:57;23.80;99.90
13697;DHT22;6920;50.080;8.226;2023-07-20T11:56:25;23.90;99.90
13697;DHT22;6920;50.080;8.226;2023-07-20T11:58:58;23.80;99.90
13697;DHT22;6920;50.080;8.226;2023-07-20T12:01:30;24.10;99.90
13697;DHT22;6920;50.080;8.226;2023-07-20T12:04:03;24.10;99.90
13697;DHT22;6920;50.080;8.226;2023-07-20T12:06:32;24.50;99.90
13697;DHT22;6920;50.080;8.226;2023-07-20T12:09:03;25.00;99.90
13697;DHT22;6920;50.080;8.226;2023-07-20T12:11:37;25.60;98.60
13697;DHT22;6920;50.080;8.226;2023-07-20T12:14:06;25.80;99.50
13697;DHT22;6920;50.080;8.226;2023-07-20T12:16:34;26.10;98.10
13697;DHT22;6920;50.080;8.226;2023-07-20T12:19:02;26.10;97.60
13697;DHT22;6920;50.080;8.226;2023-07-20T12:21:29;26.00;98.20
13697;DHT22;6920;50.080;8.226;2023-07-20T12:23:57;25.60;98.30
13697;DHT22;6920;50.080;8.226;2023-07-20T12:26:25;25.80;98.30
13697;DHT22;6920;50.080;8.226;2023-07-20T12:28:54;26.30;98.30
13697;DHT22;6920;50.080;8.226;2023-07-20T12:31:21;27.00;98.00
13697;DHT22;6920;50.080;8.226;2023-07-20T12:33:49;27.50;96.50
13697;DHT22;6920;50.080;8.226;2023-07-20T12:36:17;27.20;95.70
13697;DHT22;6920;50.080;8.226;2023-07-20T12:38:44;27.30;95.60
13697;DHT22;6920;50.080;8.226;2023-07-20T12:41:12;27.10;95.30
13697;DHT22;6920;50.080;8.226;2023-07-20T12:46:09;27.00;94.50
13697;DHT22;6920;50.080;8.226;2023-07-20T12:48:38;26.30;95.30
13697;DHT22;6920;50.080;8.226;2023-07-20T12:53:34;25.40;95.30
13697;DHT22;6920;50.080;8.226;2023-07-20T12:58:28;25.50;96.30
13697;DHT22;6920;50.080;8.226;2023-07-20T13:00:55;25.30;96.10
13697;DHT22;6920;50.080;8.226;2023-07-20T13:03:23;24.90;96.20
13697;DHT22;6920;50.080;8.226;2023-07-20T13:10:45;24.80;96.00
13697;DHT22;6920;50.080;8.226;2023-07-20T13:15:44;25.60;96.20
13697;DHT22;6920;50.080;8.226;2023-07-20T13:20:40;26.10;94.80
13697;DHT22;6920;50.080;8.226;2023-07-20T13:23:07;26.10;95.30
13697;DHT22;6920;50.080;8.226;2023-07-20T13:28:03;25.80;95.40
13697;DHT22;6920;50.080;8.226;2023-07-20T13:35:24;25.40;95.20
13697;DHT22;6920;50.080;8.226;2023-07-20T13:37:53;25.30;96.30
13697;DHT22;6920;50.080;8.226;2023-07-20T13:40:20;25.10;95.20
13697;DHT22;6920;50.080;8.226;2023-07-20T13:50:10;24.50;94.90
13697;DHT22;6920;50.080;8.226;2023-07-20T13:55:09;24.50;94.90
13697;DHT22;6920;50.080;8.226;2023-07-20T14:00:04;24.40;95.20
13697;DHT22;6920;50.080;8.226;2023-07-20T14:07:31;24.40;95.30
13697;DHT22;6920;50.080;8.226;2023-07-20T14:09:58;24.50;95.20
13697;DHT22;6920;50.080;8.226;2023-07-20T14:12:27;24.50;95.50
13697;DHT22;6920;50.080;8.226;2023-07-20T14:14:54;24.40;95.00
13697;DHT22;6920;50.080;8.226;2023-07-20T14:17:22;24.40;95.50
13697;DHT22;6920;50.080;8.226;2023-07-20T14:19:49;24.40;94.60
13697;DHT22;6920;50.080;8.226;2023-07-20T14:22:16;24.40;94.50
13697;DHT22;6920;50.080;8.226;2023-07-20T14:29:39;24.50;93.60
13697;DHT22;6920;50.080;8.226;2023-07-20T14:34:34;24.80;93.70
13697;DHT22;6920;50.080;8.226;2023-07-20T14:37:02;24.70;93.60
13697;DHT22;6920;50.080;8.226;2023-07-20T14:39:31;29.60;95.90
13697;DHT22;6920;50.080;8.226;2023-07-20T14:44:28;25.30;94.20
13697;DHT22;6920;50.080;8.226;2023-07-20T14:46:59;25.30;93.20
13697;DHT22;6920;50.080;8.226;2023-07-20T14:49:28;25.20;93.60
13697;DHT22;6920;50.080;8.226;2023-07-20T14:51:56;25.20;94.10
13697;DHT22;6920;50.080;8.226;2023-07-20T14:54:23;25.10;93.90
13697;DHT22;6920;50.080;8.226;2023-07-20T14:56:52;25.10;93.60
13697;DHT22;6920;50.080;8.226;2023-07-20T15:01:48;25.00;93.80
13697;DHT22;6920;50.080;8.226;2023-07-20T15:04:21;24.90;94.20
13697;DHT22;6920;50.080;8.226;2023-07-20T15:06:48;24.80;93.70
13697;DHT22;6920;50.080;8.226;2023-07-20T15:11:42;24.50;93.90
13697;DHT22;6920;50.080;8.226;2023-07-20T15:19:09;24.40;94.10
13697;DHT22;6920;50.080;8.226;2023-07-20T15:21:41;24.50;94.60
13697;DHT22;6920;50.080;8.226;2023-07-20T15:24:17;24.60;94.60
13697;DHT22;6920;50.080;8.226;2023-07-20T15:26:44;24.80;94.00
13697;DHT22;6920;50.080;8.226;2023-07-20T15:29:12;24.80;94.30
13697;DHT22;6920;50.080;8.226;2023-07-20T15:31:40;24.50;93.80
13697;DHT22;6920;50.080;8.226;2023-07-20T15:34:07;24.50;94.30
13697;DHT22;6920;50.080;8.226;2023-07-20T15:39:08;24.40;94.50
13697;DHT22;6920;50.080;8.226;2023-07-20T15:41:37;24.40;94.50
13697;DHT22;6920;50.080;8.226;2023-07-20T15:44:04;24.60;94.00
13697;DHT22;6920;50.080;8.226;2023-07-20T15:46:44;24.60;93.80
13697;DHT22;6920;50.080;8.226;2023-07-20T15:49:15;24.40;93.90
13697;DHT22;6920;50.080;8.226;2023-07-20T15:51:42;24.50;94.40
13697;DHT22;6920;50.080;8.226;2023-07-20T15:54:17;24.60;94.20
13697;DHT22;6920;50.080;8.226;2023-07-20T15:56:47;24.60;94.10
13697;DHT22;6920;50.080;8.226;2023-07-20T15:59:17;24.70;94.20
13697;DHT22;6920;50.080;8.226;2023-07-20T16:01:44;24.70;93.90
13697;DHT22;6920;50.080;8.226;2023-07-20T16:04:14;24.60;94.00
13697;DHT22;6920;50.080;8.226;2023-07-20T16:06:43;24.70;93.60
13697;DHT22;6920;50.080;8.226;2023-07-20T16:09:12;24.40;94.40
13697;DHT22;6920;50.080;8.226;2023-07-20T16:11:40;24.30;94.20
13697;DHT22;6920;50.080;8.226;2023-07-20T16:14:09;24.40;93.90
13697;DHT22;6920;50.080;8.226;2023-07-20T16:16:40;24.40;94.50
13697;DHT22;6920;50.080;8.226;2023-07-20T16:19:09;24.30;93.40
13697;DHT22;6920;50.080;8.226;2023-07-20T16:21:36;24.30;94.30
13697;DHT22;6920;50.080;8.226;2023-07-20T16:24:05;24.30;93.80
13697;DHT22;6920;50.080;8.226;2023-07-20T16:26:38;24.40;94.20
13697;DHT22;6920;50.080;8.226;2023-07-20T16:29:10;24.40;94.30
13697;DHT22;6920;50.080;8.226;2023-07-20T16:31:43;24.40;93.80
13697;DHT22;6920;50.080;8.226;2023-07-20T16:34:13;24.20;93.80
13697;DHT22;6920;50.080;8.226;2023-07-20T16:36:43;24.20;94.00
13697;DHT22;6920;50.080;8.226;2023-07-20T16:39:13;24.10;94.40
13697;DHT22;6920;50.080;8.226;2023-07-20T16:41:46;24.30;94.30
13697;DHT22;6920;50.080;8.226;2023-07-20T16:44:16;24.50;94.20
13697;DHT22;6920;50.080;8.226;2023-07-20T16:46:45;24.40;93.50
13697;DHT22;6920;50.080;8.226;2023-07-20T16:49:14;24.30;94.00
13697;DHT22;6920;50.080;8.226;2023-07-20T16:51:41;24.30;94.00
13697;DHT22;6920;50.080;8.226;2023-07-20T16:56:40;24.30;94.10
13697;DHT22;6920;50.080;8.226;2023-07-20T16:59:21;24.10;94.00
13697;DHT22;6920;50.080;8.226;2023-07-20T17:01:53;24.20;94.70
13697;DHT22;6920;50.080;8.226;2023-07-20T17:04:24;24.00;94.20
13697;DHT22;6920;50.080;8.226;2023-07-20T17:06:53;24.10;95.00
13697;DHT22;6920;50.080;8.226;2023-07-20T17:09:24;24.10;94.50
13697;DHT22;6920;50.080;8.226;2023-07-20T17:11:51;24.10;94.40
13697;DHT22;6920;50.080;8.226;2023-07-20T17:14:24;24.10;94.60
13697;DHT22;6920;50.080;8.226;2023-07-20T17:19:23;23.90;94.60
13697;DHT22;6920;50.080;8.226;2023-07-20T17:21:52;24.00;94.70
13697;DHT22;6920;50.080;8.226;2023-07-20T17:24:19;24.00;94.50
13697;DHT22;6920;50.080;8.226;2023-07-20T17:26:49;24.00;94.50
13697;DHT22;6920;50.080;8.226;2023-07-20T17:29:17;24.00;94.80
13697;DHT22;6920;50.080;8.226;2023-07-20T17:31:50;24.00;94.70
13697;DHT22;6920;50.080;8.226;2023-07-20T17:34:21;23.90;94.20
13697;DHT22;6920;50.080;8.226;2023-07-20T17:36:50;23.80;94.70
13697;DHT22;6920;50.080;8.226;2023-07-20T17:39:19;23.80;95.20
13697;DHT22;6920;50.080;8.226;2023-07-20T17:41:50;23.90;95.20
13697;DHT22;6920;50.080;8.226;2023-07-20T17:44:20;23.80;95.20
13697;DHT22;6920;50.080;8.226;2023-07-20T17:46:49;23.70;95.40
13697;DHT22;6920;50.080;8.226;2023-07-20T17:52:39;23.50;96.00
13697;DHT22;6920;50.080;8.226;2023-07-20T17:55:18;23.40;95.90
13697;DHT22;6920;50.080;8.226;2023-07-20T17:57:46;23.40;96.00
13697;DHT22;6920;50.080;8.226;2023-07-20T18:00:14;23.30;96.40
13697;DHT22;6920;50.080;8.226;2023-07-20T18:02:43;23.30;96.40
13697;DHT22;6920;50.080;8.226;2023-07-20T18:05:12;23.30;96.50
13697;DHT22;6920;50.080;8.226;2023-07-20T18:10:07;23.20;96.60
13697;DHT22;6920;50.080;8.226;2023-07-20T18:12:35;23.20;96.90
13697;DHT22;6920;50.080;8.226;2023-07-20T18:17:30;23.10;97.10
13697;DHT22;6920;50.080;8.226;2023-07-20T18:19:59;23.10;97.10
13697;DHT22;6920;50.080;8.226;2023-07-20T18:22:26;23.10;97.50
13697;DHT22;6920;50.080;8.226;2023-07-20T18:24:53;23.00;97.50
13697;DHT22;6920;50.080;8.226;2023-07-20T18:29:48;22.90;97.60